sensor_id;sensor_type;location;lat;lon;timestamp;P1;durP1;ratioP1;P2;durP2;ratioP2
71814;SDS011;59659;41.520;23.794;2022-11-27T00:00:08;13.95;;;7.93;;
71814;SDS011;59659;41.520;23.794;2022-11-27T00:01:21;19.67;;;7.95;;
71814;SDS011;59659;41.520;23.794;2022-11-27T00:02:33;16.67;;;8.70;;
71814;SDS011;59659;41.520;23.794;2022-11-27T00:03:51;21.23;;;9.80;;
71814;SDS011;59659;41.520;23.794;2022-11-27T00:05:03;22.02;;;10.35;;
71814;SDS011;59659;41.520;23.794;2022-11-27T00:06:16;16.45;;;8.82;;
71814;SDS011;59659;41.520;23.794;2022-11-27T00:07:28;17.98;;;9.02;;
71814;SDS011;59659;41.520;23.794;2022-11-27T00:08:39;16.70;;;8.75;;
71814;SDS011;59659;41.520;23.794;2022-11-27T00:09:51;16.90;;;8.90;;
71814;SDS011;59659;41.520;23.794;2022-11-27T00:11:06;15.73;;;8.02;;
71814;SDS011;59659;41.520;23.794;2022-11-27T00:12:18;18.25;;;7.85;;
71814;SDS011;59659;41.520;23.794;2022-11-27T00:13:30;15.82;;;8.55;;
71814;SDS011;59659;41.520;23.794;2022-11-27T00:14:41;15.38;;;8.30;;
71814;SDS011;59659;41.520;23.794;2022-11-27T00:15:55;12.75;;;6.80;;
71814;SDS011;59659;41.520;23.794;2022-11-27T00:17:07;13.82;;;6.88;;
71814;SDS011;59659;41.520;23.794;2022-11-27T00:18:18;10.00;;;6.32;;
71814;SDS011;59659;41.520;23.794;2022-11-27T00:19:30;11.10;;;5.90;;
71814;SDS011;59659;41.520;23.794;2022-11-27T00:20:41;11.23;;;6.43;;
71814;SDS011;59659;41.520;23.794;2022-11-27T00:21:53;22.02;;;9.10;;
71814;SDS011;59659;41.520;23.794;2022-11-27T00:23:04;21.00;;;9.25;;
71814;SDS011;59659;41.520;23.794;2022-11-27T00:24:16;16.27;;;7.60;;
71814;SDS011;59659;41.520;23.794;2022-11-27T00:25:28;15.40;;;7.50;;
71814;SDS011;59659;41.520;23.794;2022-11-27T00:26:39;20.50;;;9.00;;
71814;SDS011;59659;41.520;23.794;2022-11-27T00:27:51;22.92;;;9.73;;
71814;SDS011;59659;41.520;23.794;2022-11-27T00:29:03;24.70;;;9.85;;
71814;SDS011;59659;41.520;23.794;2022-11-27T00:30:15;18.95;;;10.35;;
71814;SDS011;59659;41.520;23.794;2022-11-27T00:31:27;16.98;;;8.88;;
71814;SDS011;59659;41.520;23.794;2022-11-27T00:32:39;11.57;;;7.53;;
71814;SDS011;59659;41.520;23.794;2022-11-27T00:33:54;19.63;;;8.10;;
71814;SDS011;59659;41.520;23.794;2022-11-27T00:35:06;11.23;;;6.93;;
71814;SDS011;59659;41.520;23.794;2022-11-27T00:36:18;14.63;;;7.95;;
71814;SDS011;59659;41.520;23.794;2022-11-27T00:37:29;15.13;;;8.20;;
71814;SDS011;59659;41.520;23.794;2022-11-27T00:38:41;18.73;;;9.07;;
71814;SDS011;59659;41.520;23.794;2022-11-27T00:39:52;13.18;;;6.63;;
71814;SDS011;59659;41.520;23.794;2022-11-27T00:41:14;12.02;;;6.30;;
71814;SDS011;59659;41.520;23.794;2022-11-27T00:42:26;15.25;;;6.18;;
71814;SDS011;59659;41.520;23.794;2022-11-27T00:43:38;11.48;;;5.35;;
71814;SDS011;59659;41.520;23.794;2022-11-27T00:44:55;6.22;;;5.38;;
71814;SDS011;59659;41.520;23.794;2022-11-27T00:46:06;11.63;;;5.93;;
71814;SDS011;59659;41.520;23.794;2022-11-27T00:47:18;11.73;;;6.72;;
71814;SDS011;59659;41.520;23.794;2022-11-27T00:48:29;14.32;;;6.40;;
71814;SDS011;59659;41.520;23.794;2022-11-27T00:49:41;9.27;;;6.20;;
71814;SDS011;59659;41.520;23.794;2022-11-27T00:50:57;15.00;;;6.63;;
71814;SDS011;59659;41.520;23.794;2022-11-27T00:52:09;12.02;;;6.90;;
71814;SDS011;59659;41.520;23.794;2022-11-27T00:53:20;14.52;;;7.45;;
71814;SDS011;59659;41.520;23.794;2022-11-27T00:54:32;8.98;;;5.32;;
71814;SDS011;59659;41.520;23.794;2022-11-27T00:55:45;11.15;;;6.53;;
71814;SDS011;59659;41.520;23.794;2022-11-27T00:56:56;11.98;;;6.10;;
71814;SDS011;59659;41.520;23.794;2022-11-27T00:58:08;7.90;;;4.97;;
71814;SDS011;59659;41.520;23.794;2022-11-27T00:59:19;16.65;;;6.10;;
71814;SDS011;59659;41.520;23.794;2022-11-27T01:00:31;7.80;;;4.50;;
71814;SDS011;59659;41.520;23.794;2022-11-27T01:01:42;6.47;;;4.78;;
71814;SDS011;59659;41.520;23.794;2022-11-27T01:02:54;11.48;;;5.43;;
71814;SDS011;59659;41.520;23.794;2022-11-27T01:04:07;10.43;;;5.15;;
71814;SDS011;59659;41.520;23.794;2022-11-27T01:05:19;8.68;;;4.68;;
71814;SDS011;59659;41.520;23.794;2022-11-27T01:06:30;11.48;;;6.05;;
71814;SDS011;59659;41.520;23.794;2022-11-27T01:07:42;13.70;;;7.18;;
71814;SDS011;59659;41.520;23.794;2022-11-27T01:08:54;12.43;;;6.25;;
71814;SDS011;59659;41.520;23.794;2022-11-27T01:10:06;10.43;;;5.40;;
71814;SDS011;59659;41.520;23.794;2022-11-27T01:11:19;8.32;;;4.35;;
71814;SDS011;59659;41.520;23.794;2022-11-27T01:12:31;13.05;;;5.88;;
71814;SDS011;59659;41.520;23.794;2022-11-27T01:13:43;10.05;;;4.53;;
71814;SDS011;59659;41.520;23.794;2022-11-27T01:14:54;11.95;;;5.93;;
71814;SDS011;59659;41.520;23.794;2022-11-27T01:16:07;11.05;;;6.07;;
71814;SDS011;59659;41.520;23.794;2022-11-27T01:17:20;8.32;;;5.93;;
71814;SDS011;59659;41.520;23.794;2022-11-27T01:18:32;13.15;;;6.03;;
71814;SDS011;59659;41.520;23.794;2022-11-27T01:19:43;11.15;;;5.90;;
71814;SDS011;59659;41.520;23.794;2022-11-27T01:20:55;15.05;;;6.80;;
71814;SDS011;59659;41.520;23.794;2022-11-27T01:22:07;12.15;;;6.13;;
71814;SDS011;59659;41.520;23.794;2022-11-27T01:23:19;6.25;;;3.70;;
71814;SDS011;59659;41.520;23.794;2022-11-27T01:24:30;9.40;;;4.03;;
71814;SDS011;59659;41.520;23.794;2022-11-27T01:25:42;12.07;;;5.63;;
71814;SDS011;59659;41.520;23.794;2022-11-27T01:26:53;6.63;;;4.45;;
71814;SDS011;59659;41.520;23.794;2022-11-27T01:28:05;12.20;;;4.88;;
71814;SDS011;59659;41.520;23.794;2022-11-27T01:29:17;10.85;;;5.00;;
71814;SDS011;59659;41.520;23.794;2022-11-27T01:30:29;9.43;;;3.75;;
71814;SDS011;59659;41.520;23.794;2022-11-27T01:31:42;6.75;;;4.63;;
71814;SDS011;59659;41.520;23.794;2022-11-27T01:32:54;13.52;;;5.47;;
71814;SDS011;59659;41.520;23.794;2022-11-27T01:34:06;8.75;;;4.38;;
71814;SDS011;59659;41.520;23.794;2022-11-27T01:35:18;10.02;;;4.53;;
71814;SDS011;59659;41.520;23.794;2022-11-27T01:36:30;10.20;;;4.82;;
71814;SDS011;59659;41.520;23.794;2022-11-27T01:37:42;9.68;;;5.45;;
71814;SDS011;59659;41.520;23.794;2022-11-27T01:38:54;8.43;;;5.00;;
71814;SDS011;59659;41.520;23.794;2022-11-27T01:40:06;9.57;;;6.32;;
71814;SDS011;59659;41.520;23.794;2022-11-27T01:42:29;10.50;;;5.53;;
71814;SDS011;59659;41.520;23.794;2022-11-27T01:43:42;12.32;;;6.13;;
71814;SDS011;59659;41.520;23.794;2022-11-27T01:44:54;12.18;;;6.80;;
71814;SDS011;59659;41.520;23.794;2022-11-27T01:47:37;11.90;;;5.75;;
71814;SDS011;59659;41.520;23.794;2022-11-27T01:48:50;9.75;;;4.82;;
71814;SDS011;59659;41.520;23.794;2022-11-27T01:50:08;9.40;;;4.28;;
71814;SDS011;59659;41.520;23.794;2022-11-27T01:51:20;13.77;;;4.85;;
71814;SDS011;59659;41.520;23.794;2022-11-27T01:52:33;12.10;;;5.38;;
71814;SDS011;59659;41.520;23.794;2022-11-27T01:53:45;8.80;;;4.45;;
71814;SDS011;59659;41.520;23.794;2022-11-27T01:55:01;9.35;;;4.93;;
71814;SDS011;59659;41.520;23.794;2022-11-27T01:56:14;9.35;;;4.25;;
71814;SDS011;59659;41.520;23.794;2022-11-27T01:57:28;14.32;;;6.28;;
71814;SDS011;59659;41.520;23.794;2022-11-27T01:58:41;8.75;;;5.00;;
71814;SDS011;59659;41.520;23.794;2022-11-27T01:59:53;9.05;;;4.63;;
71814;SDS011;59659;41.520;23.794;2022-11-27T02:01:06;7.88;;;4.90;;
71814;SDS011;59659;41.520;23.794;2022-11-27T02:02:18;26.27;;;9.88;;
71814;SDS011;59659;41.520;23.794;2022-11-27T02:03:30;20.98;;;8.75;;
71814;SDS011;59659;41.520;23.794;2022-11-27T02:04:41;18.95;;;8.85;;
71814;SDS011;59659;41.520;23.794;2022-11-27T02:05:53;18.63;;;7.60;;
71814;SDS011;59659;41.520;23.794;2022-11-27T02:07:05;19.17;;;7.53;;
71814;SDS011;59659;41.520;23.794;2022-11-27T02:08:16;18.33;;;7.28;;
71814;SDS011;59659;41.520;23.794;2022-11-27T02:09:28;19.90;;;7.85;;
71814;SDS011;59659;41.520;23.794;2022-11-27T02:10:46;18.67;;;7.90;;
71814;SDS011;59659;41.520;23.794;2022-11-27T02:12:05;17.75;;;6.93;;
71814;SDS011;59659;41.520;23.794;2022-11-27T02:14:34;11.13;;;6.32;;
71814;SDS011;59659;41.520;23.794;2022-11-27T02:17:05;9.73;;;5.68;;
71814;SDS011;59659;41.520;23.794;2022-11-27T02:18:27;6.00;;;3.42;;
71814;SDS011;59659;41.520;23.794;2022-11-27T02:19:49;9.55;;;4.72;;
71814;SDS011;59659;41.520;23.794;2022-11-27T02:21:10;7.45;;;4.60;;
71814;SDS011;59659;41.520;23.794;2022-11-27T02:22:39;6.45;;;4.47;;
71814;SDS011;59659;41.520;23.794;2022-11-27T02:25:21;11.68;;;5.13;;
71814;SDS011;59659;41.520;23.794;2022-11-27T02:29:32;14.18;;;6.63;;
71814;SDS011;59659;41.520;23.794;2022-11-27T02:30:45;14.45;;;7.72;;
71814;SDS011;59659;41.520;23.794;2022-11-27T02:33:23;7.30;;;3.70;;
71814;SDS011;59659;41.520;23.794;2022-11-27T02:35:57;7.35;;;3.92;;
71814;SDS011;59659;41.520;23.794;2022-11-27T02:37:20;8.73;;;4.35;;
71814;SDS011;59659;41.520;23.794;2022-11-27T02:38:40;8.52;;;3.10;;
71814;SDS011;59659;41.520;23.794;2022-11-27T02:41:15;16.40;;;5.15;;
71814;SDS011;59659;41.520;23.794;2022-11-27T02:42:29;9.50;;;5.18;;
71814;SDS011;59659;41.520;23.794;2022-11-27T02:43:43;9.98;;;5.38;;
71814;SDS011;59659;41.520;23.794;2022-11-27T02:45:06;9.15;;;4.80;;
71814;SDS011;59659;41.520;23.794;2022-11-27T02:46:19;8.73;;;5.22;;
71814;SDS011;59659;41.520;23.794;2022-11-27T02:47:31;6.50;;;4.53;;
71814;SDS011;59659;41.520;23.794;2022-11-27T02:48:47;12.02;;;4.70;;
71814;SDS011;59659;41.520;23.794;2022-11-27T02:49:59;7.45;;;3.90;;
71814;SDS011;59659;41.520;23.794;2022-11-27T02:51:12;8.38;;;4.30;;
71814;SDS011;59659;41.520;23.794;2022-11-27T02:52:25;8.77;;;4.88;;
71814;SDS011;59659;41.520;23.794;2022-11-27T02:53:40;8.52;;;4.78;;
71814;SDS011;59659;41.520;23.794;2022-11-27T02:54:56;7.63;;;4.85;;
71814;SDS011;59659;41.520;23.794;2022-11-27T02:56:13;9.20;;;4.38;;
71814;SDS011;59659;41.520;23.794;2022-11-27T02:57:25;9.35;;;4.50;;
71814;SDS011;59659;41.520;23.794;2022-11-27T02:58:38;9.38;;;4.80;;
71814;SDS011;59659;41.520;23.794;2022-11-27T02:59:50;12.30;;;5.30;;
71814;SDS011;59659;41.520;23.794;2022-11-27T03:01:04;13.40;;;5.05;;
71814;SDS011;59659;41.520;23.794;2022-11-27T03:02:18;13.70;;;5.28;;
71814;SDS011;59659;41.520;23.794;2022-11-27T03:03:33;12.70;;;5.57;;
71814;SDS011;59659;41.520;23.794;2022-11-27T03:04:51;13.75;;;6.40;;
71814;SDS011;59659;41.520;23.794;2022-11-27T03:06:08;12.23;;;6.18;;
71814;SDS011;59659;41.520;23.794;2022-11-27T03:07:22;15.27;;;6.60;;
71814;SDS011;59659;41.520;23.794;2022-11-27T03:08:37;10.82;;;6.07;;
71814;SDS011;59659;41.520;23.794;2022-11-27T03:09:52;11.63;;;6.28;;
71814;SDS011;59659;41.520;23.794;2022-11-27T03:11:08;9.45;;;6.32;;
71814;SDS011;59659;41.520;23.794;2022-11-27T03:12:20;13.38;;;6.13;;
71814;SDS011;59659;41.520;23.794;2022-11-27T03:13:32;11.82;;;6.13;;
71814;SDS011;59659;41.520;23.794;2022-11-27T03:14:48;11.68;;;6.05;;
71814;SDS011;59659;41.520;23.794;2022-11-27T03:21:00;17.15;;;6.13;;
71814;SDS011;59659;41.520;23.794;2022-11-27T03:22:13;12.55;;;6.30;;
71814;SDS011;59659;41.520;23.794;2022-11-27T03:23:26;11.93;;;6.15;;
71814;SDS011;59659;41.520;23.794;2022-11-27T03:24:38;12.23;;;6.90;;
71814;SDS011;59659;41.520;23.794;2022-11-27T03:25:50;12.52;;;5.50;;
71814;SDS011;59659;41.520;23.794;2022-11-27T03:27:02;15.75;;;7.50;;
71814;SDS011;59659;41.520;23.794;2022-11-27T03:28:14;11.55;;;6.32;;
71814;SDS011;59659;41.520;23.794;2022-11-27T03:29:36;9.93;;;5.78;;
71814;SDS011;59659;41.520;23.794;2022-11-27T03:30:49;9.48;;;5.35;;
71814;SDS011;59659;41.520;23.794;2022-11-27T03:32:01;12.77;;;6.72;;
71814;SDS011;59659;41.520;23.794;2022-11-27T03:33:14;12.07;;;6.25;;
71814;SDS011;59659;41.520;23.794;2022-11-27T03:34:25;13.00;;;5.75;;
71814;SDS011;59659;41.520;23.794;2022-11-27T03:35:37;9.07;;;5.75;;
71814;SDS011;59659;41.520;23.794;2022-11-27T03:36:49;11.90;;;6.00;;
71814;SDS011;59659;41.520;23.794;2022-11-27T03:38:00;15.70;;;6.32;;
71814;SDS011;59659;41.520;23.794;2022-11-27T03:39:12;12.48;;;6.68;;
71814;SDS011;59659;41.520;23.794;2022-11-27T03:40:26;22.92;;;9.02;;
71814;SDS011;59659;41.520;23.794;2022-11-27T03:41:41;32.50;;;13.48;;
71814;SDS011;59659;41.520;23.794;2022-11-27T03:43:13;18.42;;;9.05;;
71814;SDS011;59659;41.520;23.794;2022-11-27T03:45:13;13.43;;;7.53;;
71814;SDS011;59659;41.520;23.794;2022-11-27T03:46:10;16.35;;;7.35;;
71814;SDS011;59659;41.520;23.794;2022-11-27T03:51:21;29.17;;;14.52;;
71814;SDS011;59659;41.520;23.794;2022-11-27T03:55:16;22.85;;;13.18;;
71814;SDS011;59659;41.520;23.794;2022-11-27T03:57:59;22.92;;;12.02;;
71814;SDS011;59659;41.520;23.794;2022-11-27T04:00:52;18.20;;;9.38;;
71814;SDS011;59659;41.520;23.794;2022-11-27T04:02:05;16.27;;;10.05;;
71814;SDS011;59659;41.520;23.794;2022-11-27T04:03:21;15.30;;;10.68;;
71814;SDS011;59659;41.520;23.794;2022-11-27T04:04:33;25.80;;;12.80;;
71814;SDS011;59659;41.520;23.794;2022-11-27T04:05:45;18.02;;;12.73;;
71814;SDS011;59659;41.520;23.794;2022-11-27T04:06:56;27.80;;;12.35;;
71814;SDS011;59659;41.520;23.794;2022-11-27T04:08:08;19.48;;;11.70;;
71814;SDS011;59659;41.520;23.794;2022-11-27T04:09:19;21.92;;;10.93;;
71814;SDS011;59659;41.520;23.794;2022-11-27T04:10:31;18.48;;;9.10;;
71814;SDS011;59659;41.520;23.794;2022-11-27T04:11:42;13.32;;;7.90;;
71814;SDS011;59659;41.520;23.794;2022-11-27T04:12:54;17.67;;;8.48;;
71814;SDS011;59659;41.520;23.794;2022-11-27T04:14:05;16.98;;;8.73;;
71814;SDS011;59659;41.520;23.794;2022-11-27T04:15:17;16.38;;;8.60;;
71814;SDS011;59659;41.520;23.794;2022-11-27T04:16:29;19.00;;;9.32;;
71814;SDS011;59659;41.520;23.794;2022-11-27T04:17:40;15.05;;;8.45;;
71814;SDS011;59659;41.520;23.794;2022-11-27T04:18:52;23.50;;;12.48;;
71814;SDS011;59659;41.520;23.794;2022-11-27T04:20:04;22.65;;;9.60;;
71814;SDS011;59659;41.520;23.794;2022-11-27T04:21:16;19.35;;;9.15;;
71814;SDS011;59659;41.520;23.794;2022-11-27T04:22:27;19.00;;;9.07;;
71814;SDS011;59659;41.520;23.794;2022-11-27T04:23:39;18.95;;;11.68;;
71814;SDS011;59659;41.520;23.794;2022-11-27T04:24:51;19.75;;;11.02;;
71814;SDS011;59659;41.520;23.794;2022-11-27T04:26:02;20.15;;;11.85;;
71814;SDS011;59659;41.520;23.794;2022-11-27T04:27:14;27.60;;;11.88;;
71814;SDS011;59659;41.520;23.794;2022-11-27T04:28:26;20.38;;;9.30;;
71814;SDS011;59659;41.520;23.794;2022-11-27T04:29:37;21.60;;;9.48;;
71814;SDS011;59659;41.520;23.794;2022-11-27T04:30:50;19.00;;;9.23;;
71814;SDS011;59659;41.520;23.794;2022-11-27T04:32:02;14.73;;;9.35;;
71814;SDS011;59659;41.520;23.794;2022-11-27T04:33:13;21.90;;;10.07;;
71814;SDS011;59659;41.520;23.794;2022-11-27T04:34:25;21.08;;;10.23;;
71814;SDS011;59659;41.520;23.794;2022-11-27T04:35:37;16.55;;;10.10;;
71814;SDS011;59659;41.520;23.794;2022-11-27T04:36:48;17.83;;;10.50;;
71814;SDS011;59659;41.520;23.794;2022-11-27T04:38:00;16.23;;;10.00;;
71814;SDS011;59659;41.520;23.794;2022-11-27T04:39:11;21.15;;;9.65;;
71814;SDS011;59659;41.520;23.794;2022-11-27T04:40:23;16.13;;;9.27;;
71814;SDS011;59659;41.520;23.794;2022-11-27T04:41:35;22.67;;;10.98;;
71814;SDS011;59659;41.520;23.794;2022-11-27T04:42:46;17.50;;;9.27;;
71814;SDS011;59659;41.520;23.794;2022-11-27T04:43:58;22.90;;;8.95;;
71814;SDS011;59659;41.520;23.794;2022-11-27T04:45:10;21.02;;;10.18;;
71814;SDS011;59659;41.520;23.794;2022-11-27T04:46:21;21.08;;;10.20;;
71814;SDS011;59659;41.520;23.794;2022-11-27T04:47:33;13.80;;;9.40;;
71814;SDS011;59659;41.520;23.794;2022-11-27T04:48:44;17.85;;;9.25;;
71814;SDS011;59659;41.520;23.794;2022-11-27T04:49:56;14.35;;;9.02;;
71814;SDS011;59659;41.520;23.794;2022-11-27T04:51:07;23.48;;;9.82;;
71814;SDS011;59659;41.520;23.794;2022-11-27T04:52:19;21.77;;;10.20;;
71814;SDS011;59659;41.520;23.794;2022-11-27T04:53:30;24.02;;;11.18;;
71814;SDS011;59659;41.520;23.794;2022-11-27T04:54:42;23.17;;;10.05;;
71814;SDS011;59659;41.520;23.794;2022-11-27T04:55:54;21.80;;;9.90;;
71814;SDS011;59659;41.520;23.794;2022-11-27T04:57:05;22.45;;;10.18;;
71814;SDS011;59659;41.520;23.794;2022-11-27T04:58:17;16.95;;;7.88;;
71814;SDS011;59659;41.520;23.794;2022-11-27T04:59:28;16.00;;;7.55;;
71814;SDS011;59659;41.520;23.794;2022-11-27T05:00:40;12.05;;;7.65;;
71814;SDS011;59659;41.520;23.794;2022-11-27T05:01:51;27.33;;;9.15;;
71814;SDS011;59659;41.520;23.794;2022-11-27T05:03:03;16.08;;;6.25;;
71814;SDS011;59659;41.520;23.794;2022-11-27T05:04:14;12.18;;;6.30;;
71814;SDS011;59659;41.520;23.794;2022-11-27T05:05:26;10.02;;;5.95;;
71814;SDS011;59659;41.520;23.794;2022-11-27T05:06:37;15.40;;;7.50;;
71814;SDS011;59659;41.520;23.794;2022-11-27T05:07:49;18.50;;;6.65;;
71814;SDS011;59659;41.520;23.794;2022-11-27T05:09:01;15.45;;;7.50;;
71814;SDS011;59659;41.520;23.794;2022-11-27T05:10:12;15.90;;;6.68;;
71814;SDS011;59659;41.520;23.794;2022-11-27T05:11:24;10.65;;;5.63;;
71814;SDS011;59659;41.520;23.794;2022-11-27T05:12:36;12.73;;;6.43;;
71814;SDS011;59659;41.520;23.794;2022-11-27T05:13:48;11.48;;;5.82;;
71814;SDS011;59659;41.520;23.794;2022-11-27T05:15:09;14.43;;;6.75;;
71814;SDS011;59659;41.520;23.794;2022-11-27T05:16:20;13.07;;;6.13;;
71814;SDS011;59659;41.520;23.794;2022-11-27T05:17:32;15.73;;;8.32;;
71814;SDS011;59659;41.520;23.794;2022-11-27T05:18:44;10.85;;;6.50;;
71814;SDS011;59659;41.520;23.794;2022-11-27T05:19:55;16.45;;;6.93;;
71814;SDS011;59659;41.520;23.794;2022-11-27T05:21:07;8.68;;;5.13;;
71814;SDS011;59659;41.520;23.794;2022-11-27T05:22:18;12.30;;;6.47;;
71814;SDS011;59659;41.520;23.794;2022-11-27T05:23:30;11.20;;;6.10;;
71814;SDS011;59659;41.520;23.794;2022-11-27T05:24:42;12.45;;;5.72;;
71814;SDS011;59659;41.520;23.794;2022-11-27T05:25:53;9.65;;;5.60;;
71814;SDS011;59659;41.520;23.794;2022-11-27T05:27:05;12.27;;;6.63;;
71814;SDS011;59659;41.520;23.794;2022-11-27T05:28:16;12.45;;;6.95;;
71814;SDS011;59659;41.520;23.794;2022-11-27T05:29:35;15.50;;;7.70;;
71814;SDS011;59659;41.520;23.794;2022-11-27T05:30:47;15.55;;;8.57;;
71814;SDS011;59659;41.520;23.794;2022-11-27T05:31:58;23.42;;;11.90;;
71814;SDS011;59659;41.520;23.794;2022-11-27T05:33:10;20.10;;;9.75;;
71814;SDS011;59659;41.520;23.794;2022-11-27T05:34:21;29.17;;;13.13;;
71814;SDS011;59659;41.520;23.794;2022-11-27T05:35:33;26.92;;;13.32;;
71814;SDS011;59659;41.520;23.794;2022-11-27T05:36:44;42.35;;;19.73;;
71814;SDS011;59659;41.520;23.794;2022-11-27T05:37:58;22.60;;;10.10;;
71814;SDS011;59659;41.520;23.794;2022-11-27T05:39:10;18.88;;;9.98;;
71814;SDS011;59659;41.520;23.794;2022-11-27T05:40:22;21.35;;;10.57;;
71814;SDS011;59659;41.520;23.794;2022-11-27T05:41:34;22.35;;;9.68;;
71814;SDS011;59659;41.520;23.794;2022-11-27T05:42:46;29.80;;;12.10;;
71814;SDS011;59659;41.520;23.794;2022-11-27T05:43:57;22.63;;;12.13;;
71814;SDS011;59659;41.520;23.794;2022-11-27T05:45:09;33.92;;;15.25;;
71814;SDS011;59659;41.520;23.794;2022-11-27T05:46:21;34.65;;;16.63;;
71814;SDS011;59659;41.520;23.794;2022-11-27T05:47:33;33.20;;;14.77;;
71814;SDS011;59659;41.520;23.794;2022-11-27T05:48:44;26.65;;;11.10;;
71814;SDS011;59659;41.520;23.794;2022-11-27T05:49:56;20.63;;;9.68;;
71814;SDS011;59659;41.520;23.794;2022-11-27T05:51:07;18.75;;;9.32;;
71814;SDS011;59659;41.520;23.794;2022-11-27T05:52:19;19.25;;;9.43;;
71814;SDS011;59659;41.520;23.794;2022-11-27T05:53:30;21.30;;;9.43;;
71814;SDS011;59659;41.520;23.794;2022-11-27T05:54:42;18.08;;;9.13;;
71814;SDS011;59659;41.520;23.794;2022-11-27T05:55:53;22.65;;;9.30;;
71814;SDS011;59659;41.520;23.794;2022-11-27T05:57:05;15.55;;;7.65;;
71814;SDS011;59659;41.520;23.794;2022-11-27T05:58:17;19.15;;;8.82;;
71814;SDS011;59659;41.520;23.794;2022-11-27T05:59:29;16.75;;;9.00;;
71814;SDS011;59659;41.520;23.794;2022-11-27T06:00:40;53.67;;;12.63;;
71814;SDS011;59659;41.520;23.794;2022-11-27T06:01:51;26.45;;;11.73;;
71814;SDS011;59659;41.520;23.794;2022-11-27T06:03:03;22.92;;;10.82;;
71814;SDS011;59659;41.520;23.794;2022-11-27T06:04:15;18.35;;;10.55;;
71814;SDS011;59659;41.520;23.794;2022-11-27T06:05:26;24.25;;;10.68;;
71814;SDS011;59659;41.520;23.794;2022-11-27T06:06:38;20.70;;;10.43;;
71814;SDS011;59659;41.520;23.794;2022-11-27T06:07:49;18.00;;;11.13;;
71814;SDS011;59659;41.520;23.794;2022-11-27T06:09:01;16.45;;;8.95;;
71814;SDS011;59659;41.520;23.794;2022-11-27T06:10:14;19.13;;;9.90;;
71814;SDS011;59659;41.520;23.794;2022-11-27T06:11:26;19.88;;;10.30;;
71814;SDS011;59659;41.520;23.794;2022-11-27T06:12:37;16.30;;;9.60;;
71814;SDS011;59659;41.520;23.794;2022-11-27T06:13:49;19.10;;;9.65;;
71814;SDS011;59659;41.520;23.794;2022-11-27T06:15:01;19.55;;;9.50;;
71814;SDS011;59659;41.520;23.794;2022-11-27T06:16:17;31.10;;;12.32;;
71814;SDS011;59659;41.520;23.794;2022-11-27T06:17:29;24.88;;;10.77;;
71814;SDS011;59659;41.520;23.794;2022-11-27T06:18:41;35.20;;;10.57;;
71814;SDS011;59659;41.520;23.794;2022-11-27T06:19:52;22.38;;;12.13;;
71814;SDS011;59659;41.520;23.794;2022-11-27T06:21:04;18.33;;;10.95;;
71814;SDS011;59659;41.520;23.794;2022-11-27T06:22:16;22.20;;;11.27;;
71814;SDS011;59659;41.520;23.794;2022-11-27T06:23:27;24.48;;;12.23;;
71814;SDS011;59659;41.520;23.794;2022-11-27T06:24:39;38.92;;;15.88;;
71814;SDS011;59659;41.520;23.794;2022-11-27T06:25:51;28.02;;;12.32;;
71814;SDS011;59659;41.520;23.794;2022-11-27T06:27:02;25.42;;;12.57;;
71814;SDS011;59659;41.520;23.794;2022-11-27T06:28:14;28.20;;;13.65;;
71814;SDS011;59659;41.520;23.794;2022-11-27T06:29:25;27.25;;;14.13;;
71814;SDS011;59659;41.520;23.794;2022-11-27T06:30:37;24.42;;;14.23;;
71814;SDS011;59659;41.520;23.794;2022-11-27T06:31:48;25.52;;;12.75;;
71814;SDS011;59659;41.520;23.794;2022-11-27T06:33:00;20.27;;;10.90;;
71814;SDS011;59659;41.520;23.794;2022-11-27T06:34:11;22.00;;;11.40;;
71814;SDS011;59659;41.520;23.794;2022-11-27T06:35:23;29.17;;;12.45;;
71814;SDS011;59659;41.520;23.794;2022-11-27T06:36:36;33.55;;;13.82;;
71814;SDS011;59659;41.520;23.794;2022-11-27T06:37:47;26.30;;;13.45;;
71814;SDS011;59659;41.520;23.794;2022-11-27T06:38:59;28.20;;;14.40;;
71814;SDS011;59659;41.520;23.794;2022-11-27T06:40:11;34.35;;;18.25;;
71814;SDS011;59659;41.520;23.794;2022-11-27T06:41:23;33.70;;;17.00;;
71814;SDS011;59659;41.520;23.794;2022-11-27T06:42:36;32.40;;;16.73;;
71814;SDS011;59659;41.520;23.794;2022-11-27T06:43:48;24.85;;;13.32;;
71814;SDS011;59659;41.520;23.794;2022-11-27T06:45:00;25.02;;;13.15;;
71814;SDS011;59659;41.520;23.794;2022-11-27T06:46:12;24.15;;;12.02;;
71814;SDS011;59659;41.520;23.794;2022-11-27T06:47:25;22.55;;;11.13;;
71814;SDS011;59659;41.520;23.794;2022-11-27T06:48:37;26.20;;;15.85;;
71814;SDS011;59659;41.520;23.794;2022-11-27T06:49:49;25.77;;;12.05;;
71814;SDS011;59659;41.520;23.794;2022-11-27T06:51:01;16.58;;;10.45;;
71814;SDS011;59659;41.520;23.794;2022-11-27T06:52:13;25.88;;;14.43;;
71814;SDS011;59659;41.520;23.794;2022-11-27T06:53:24;32.00;;;16.52;;
71814;SDS011;59659;41.520;23.794;2022-11-27T06:54:36;31.60;;;16.73;;
71814;SDS011;59659;41.520;23.794;2022-11-27T06:55:48;37.25;;;16.40;;
71814;SDS011;59659;41.520;23.794;2022-11-27T06:56:59;33.60;;;14.85;;
71814;SDS011;59659;41.520;23.794;2022-11-27T06:58:11;27.52;;;15.20;;
71814;SDS011;59659;41.520;23.794;2022-11-27T06:59:22;32.10;;;16.48;;
71814;SDS011;59659;41.520;23.794;2022-11-27T07:00:34;33.08;;;18.70;;
71814;SDS011;59659;41.520;23.794;2022-11-27T07:01:46;36.78;;;17.92;;
71814;SDS011;59659;41.520;23.794;2022-11-27T07:02:58;29.20;;;17.38;;
71814;SDS011;59659;41.520;23.794;2022-11-27T07:04:09;38.40;;;16.38;;
71814;SDS011;59659;41.520;23.794;2022-11-27T07:05:22;36.45;;;18.73;;
71814;SDS011;59659;41.520;23.794;2022-11-27T07:06:33;33.28;;;17.48;;
71814;SDS011;59659;41.520;23.794;2022-11-27T07:07:45;32.08;;;14.48;;
71814;SDS011;59659;41.520;23.794;2022-11-27T07:08:57;33.15;;;18.00;;
71814;SDS011;59659;41.520;23.794;2022-11-27T07:10:09;33.92;;;17.30;;
71814;SDS011;59659;41.520;23.794;2022-11-27T07:11:21;34.03;;;17.17;;
71814;SDS011;59659;41.520;23.794;2022-11-27T07:12:33;25.85;;;14.38;;
71814;SDS011;59659;41.520;23.794;2022-11-27T07:13:45;19.98;;;10.80;;
71814;SDS011;59659;41.520;23.794;2022-11-27T07:14:57;18.02;;;10.80;;
71814;SDS011;59659;41.520;23.794;2022-11-27T07:16:14;19.88;;;11.50;;
71814;SDS011;59659;41.520;23.794;2022-11-27T07:17:27;23.08;;;12.63;;
71814;SDS011;59659;41.520;23.794;2022-11-27T07:18:40;24.17;;;12.27;;
71814;SDS011;59659;41.520;23.794;2022-11-27T07:19:51;24.83;;;12.82;;
71814;SDS011;59659;41.520;23.794;2022-11-27T07:21:03;23.00;;;12.82;;
71814;SDS011;59659;41.520;23.794;2022-11-27T07:22:15;38.60;;;14.55;;
71814;SDS011;59659;41.520;23.794;2022-11-27T07:23:26;24.45;;;13.88;;
71814;SDS011;59659;41.520;23.794;2022-11-27T07:24:38;28.98;;;13.82;;
71814;SDS011;59659;41.520;23.794;2022-11-27T07:25:50;38.83;;;17.52;;
71814;SDS011;59659;41.520;23.794;2022-11-27T07:27:02;31.80;;;15.60;;
71814;SDS011;59659;41.520;23.794;2022-11-27T07:28:13;33.28;;;17.13;;
71814;SDS011;59659;41.520;23.794;2022-11-27T07:29:29;42.25;;;18.73;;
71814;SDS011;59659;41.520;23.794;2022-11-27T07:30:41;38.13;;;17.35;;
71814;SDS011;59659;41.520;23.794;2022-11-27T07:31:52;32.05;;;15.07;;